Time;durP1;ratioP1;P1;durP2;ratioP2;P2;SDS_P1;SDS_P2;PMS_P1;PMS_P2;Temp;Humidity;BMP_temperature;BMP_pressure;BME280_temperature;BME280_humidity;BME280_pressure;Samples;Min_cycle;Max_cycle;Signal;HPM_P1;HPM_P2
2021/01/27 00:00:23;;;;;;;6.47;4.57;;;3.70;99.90;;;;;;5002076;28;20649;-87
2021/01/27 00:02:49;;;;;;;10.00;4.43;;;3.70;99.90;;;;;;5001638;28;20176;-88
2021/01/27 00:05:22;;;;;;;15.10;4.73;;;3.70;99.90;;;;;;5001350;28;20537;-88
2021/01/27 00:07:48;;;;;;;5.23;4.73;;;3.60;99.90;;;;;;5019122;28;20661;-88
2021/01/27 00:10:15;;;;;;;8.97;4.57;;;3.60;99.90;;;;;;5000848;28;20220;-86
2021/01/27 00:12:41;;;;;;;6.93;4.77;;;3.60;99.90;;;;;;5000616;28;20172;-88
2021/01/27 00:15:16;;;;;;;8.70;4.87;;;3.50;99.90;;;;;;5000889;28;20192;-88
2021/01/27 00:17:42;;;;;;;24.53;5.07;;;3.50;99.90;;;;;;5017387;28;20180;-88
2021/01/27 00:20:11;;;;;;;6.40;4.53;;;3.40;99.90;;;;;;4985147;28;20215;-87
2021/01/27 00:22:36;;;;;;;6.63;5.33;;;3.40;99.90;;;;;;5000864;28;20235;-88
2021/01/27 00:25:04;;;;;;;8.00;5.27;;;3.30;99.90;;;;;;5019400;28;20510;-87
2021/01/27 00:27:30;;;;;;;6.77;5.10;;;3.20;99.90;;;;;;5000813;28;20165;-87
2021/01/27 00:29:56;;;;;;;12.80;5.37;;;3.20;99.90;;;;;;4984009;28;20220;-87
2021/01/27 00:32:21;;;;;;;10.80;5.93;;;3.20;99.90;;;;;;4984459;28;20177;-88
2021/01/27 00:34:47;;;;;;;13.57;5.97;;;3.10;99.90;;;;;;5000533;28;20165;-88
2021/01/27 00:37:13;;;;;;;9.53;5.77;;;3.20;99.90;;;;;;5000376;28;20307;-88
2021/01/27 00:39:38;;;;;;;15.10;6.50;;;3.10;99.90;;;;;;4983744;28;20649;-88
2021/01/27 00:42:04;;;;;;;8.00;6.47;;;3.10;99.90;;;;;;4983731;28;20199;-88
2021/01/27 00:44:30;;;;;;;7.90;5.87;;;3.10;99.90;;;;;;4999012;28;20262;-88
2021/01/27 00:46:55;;;;;;;11.30;6.80;;;3.10;99.90;;;;;;4980553;28;20170;-88
2021/01/27 00:49:21;;;;;;;8.80;6.07;;;3.10;99.90;;;;;;4964774;28;20292;-88
2021/01/27 00:51:47;;;;;;;11.30;6.70;;;3.00;99.90;;;;;;4980763;28;20180;-87
2021/01/27 00:54:12;;;;;;;16.83;7.03;;;2.90;99.90;;;;;;4964675;28;20529;-88
2021/01/27 00:56:38;;;;;;;10.30;7.33;;;2.90;99.90;;;;;;4990342;28;20205;-88
2021/01/27 00:59:03;;;;;;;12.37;7.40;;;2.90;99.90;;;;;;5000121;28;20196;-88
2021/01/27 01:01:31;;;;;;;8.20;7.17;;;2.90;99.90;;;;;;4983788;28;20267;-88
2021/01/27 01:03:57;;;;;;;11.67;7.70;;;2.80;99.90;;;;;;4999822;28;20164;-88
2021/01/27 01:06:23;;;;;;;14.73;7.77;;;2.80;99.90;;;;;;4999970;28;20170;-87
2021/01/27 01:08:48;;;;;;;12.17;7.67;;;2.70;99.90;;;;;;4999110;28;20262;-87
2021/01/27 01:11:14;;;;;;;8.73;7.83;;;2.70;99.90;;;;;;4995612;28;20173;-87
2021/01/27 01:13:39;;;;;;;11.27;8.53;;;2.60;99.90;;;;;;4980123;28;20176;-88
2021/01/27 01:16:05;;;;;;;13.53;8.87;;;2.50;99.90;;;;;;4963862;28;20180;-86
2021/01/27 01:18:33;;;;;;;15.90;9.77;;;2.50;99.90;;;;;;4979851;28;20177;-87
2021/01/27 01:20:59;;;;;;;13.27;9.33;;;2.50;99.90;;;;;;4980086;28;20181;-88
2021/01/27 01:23:25;;;;;;;13.07;10.03;;;2.40;99.90;;;;;;4983098;28;20181;-88
2021/01/27 01:25:50;;;;;;;12.27;9.40;;;2.40;99.90;;;;;;4991714;28;20192;-88
2021/01/27 01:28:17;;;;;;;14.53;10.50;;;2.40;99.90;;;;;;5010500;28;20599;-87
2021/01/27 01:30:45;;;;;;;12.60;9.13;;;2.40;99.90;;;;;;5008412;28;20220;-88
2021/01/27 01:33:21;;;;;;;12.13;8.93;;;2.40;99.90;;;;;;5004885;28;20204;-89
2021/01/27 01:35:47;;;;;;;8.40;7.53;;;2.40;99.90;;;;;;4999551;28;20192;-91
2021/01/27 01:38:14;;;;;;;9.30;7.30;;;2.40;99.90;;;;;;5017035;28;20173;-89
2021/01/27 01:40:54;;;;;;;10.33;7.47;;;2.30;99.90;;;;;;4999582;28;20238;-90
2021/01/27 01:43:22;;;;;;;6.33;5.73;;;2.40;99.90;;;;;;4979869;28;20613;-90
2021/01/27 01:46:14;;;;;;;8.20;6.60;;;2.40;99.90;;;;;;4980045;28;20204;-88
2021/01/27 01:48:44;;;;;;;9.30;6.53;;;2.40;99.90;;;;;;4986841;28;20228;-90
2021/01/27 01:51:32;;;;;;;7.57;6.87;;;2.40;99.90;;;;;;4990652;28;20224;-89
2021/01/27 01:54:08;;;;;;;6.53;5.93;;;2.40;99.90;;;;;;4990185;28;20239;-89
2021/01/27 01:56:39;;;;;;;6.90;6.17;;;2.40;99.90;;;;;;4997081;28;20161;-90
2021/01/27 01:59:11;;;;;;;6.13;5.57;;;2.40;99.90;;;;;;4979651;28;20177;-89
2021/01/27 02:01:40;;;;;;;6.30;5.53;;;2.50;99.90;;;;;;4979614;28;20196;-88
2021/01/27 02:04:08;;;;;;;5.57;5.07;;;2.50;99.90;;;;;;4980592;28;20173;-88
2021/01/27 02:06:34;;;;;;;5.47;4.97;;;2.60;99.90;;;;;;5014003;28;20168;-90
2021/01/27 02:09:00;;;;;;;5.87;4.83;;;2.60;99.90;;;;;;5013429;28;20760;-89
2021/01/27 02:11:40;;;;;;;5.80;4.30;;;2.60;99.90;;;;;;5006143;28;20242;-91
2021/01/27 02:14:24;;;;;;;4.77;4.37;;;2.70;99.90;;;;;;4999092;28;20191;-90
2021/01/27 02:17:26;;;;;;;3.87;3.50;;;2.70;99.90;;;;;;4998901;28;20172;-90
2021/01/27 02:20:23;;;;;;;4.63;4.23;;;2.80;99.90;;;;;;4998448;28;20199;-90
2021/01/27 02:23:17;;;;;;;4.77;4.37;;;2.80;99.90;;;;;;4998355;28;20177;-91
2021/01/27 02:26:01;;;;;;;4.00;3.60;;;2.80;99.90;;;;;;4998510;28;20169;-87
2021/01/27 02:28:45;;;;;;;5.23;3.80;;;2.80;99.90;;;;;;4998236;28;20617;-89
2021/01/27 02:31:20;;;;;;;3.80;3.50;;;2.70;99.90;;;;;;4998278;28;20193;-89
2021/01/27 02:34:10;;;;;;;3.33;3.00;;;2.80;99.90;;;;;;4998445;28;20528;-87
2021/01/27 02:37:00;;;;;;;7.03;3.27;;;2.80;99.90;;;;;;4998343;28;20204;-89
2021/01/27 02:39:36;;;;;;;5.57;3.67;;;2.80;99.90;;;;;;4998005;28;20193;-88
2021/01/27 02:42:04;;;;;;;4.93;3.53;;;2.80;99.90;;;;;;4998120;28;20169;-88
2021/01/27 02:44:58;;;;;;;3.27;2.97;;;2.70;99.90;;;;;;4997790;28;20601;-89
2021/01/27 02:47:34;;;;;;;4.60;3.60;;;2.80;99.90;;;;;;4988393;28;20252;-87
2021/01/27 02:50:08;;;;;;;5.00;3.03;;;2.80;99.90;;;;;;5015416;28;20227;-87
2021/01/27 02:52:39;;;;;;;8.00;3.20;;;2.70;99.90;;;;;;4997986;28;20169;-87
2021/01/27 02:55:16;;;;;;;4.07;3.40;;;2.80;99.90;;;;;;4997625;28;20235;-88
2021/01/27 02:57:47;;;;;;;3.23;2.93;;;2.80;99.90;;;;;;4997924;28;20179;-88
2021/01/27 03:00:21;;;;;;;3.20;2.70;;;2.80;99.90;;;;;;4997575;28;20622;-88
2021/01/27 03:02:52;;;;;;;5.93;2.70;;;2.80;99.90;;;;;;4995769;28;20235;-88
2021/01/27 03:05:32;;;;;;;3.00;2.70;;;2.90;99.90;;;;;;4978216;28;20176;-88
2021/01/27 03:08:23;;;;;;;7.40;2.87;;;3.00;99.90;;;;;;4978274;28;20169;-88
2021/01/27 03:11:13;;;;;;;4.03;2.87;;;3.00;99.90;;;;;;4977327;28;20228;-89
2021/01/27 03:13:40;;;;;;;3.10;2.80;;;3.10;99.90;;;;;;4978125;28;20173;-88
2021/01/27 03:16:21;;;;;;;3.03;2.50;;;3.10;99.90;;;;;;4977841;28;20196;-87
2021/01/27 03:19:01;;;;;;;3.37;3.07;;;3.20;99.90;;;;;;4995518;28;20162;-88
2021/01/27 03:21:34;;;;;;;3.00;2.80;;;3.10;99.90;;;;;;4978007;28;20264;-88
2021/01/27 03:24:06;;;;;;;3.10;2.40;;;3.10;99.90;;;;;;4995640;28;20157;-88
2021/01/27 03:26:34;;;;;;;3.33;3.03;;;3.00;99.90;;;;;;4977991;28;20193;-86
2021/01/27 03:29:29;;;;;;;3.40;3.10;;;3.10;99.90;;;;;;5011019;28;20280;-87
2021/01/27 03:31:59;;;;;;;8.03;3.07;;;3.00;99.90;;;;;;4966637;28;20522;-85
2021/01/27 03:34:38;;;;;;;5.27;3.03;;;3.10;99.90;;;;;;5014538;28;20234;-87
2021/01/27 03:37:09;;;;;;;3.07;2.57;;;3.10;99.90;;;;;;4997094;28;20172;-87
2021/01/27 03:39:38;;;;;;;2.70;2.50;;;3.10;99.90;;;;;;5014576;28;20180;-87
2021/01/27 03:42:14;;;;;;;3.63;2.60;;;3.10;99.90;;;;;;4997109;28;20177;-87
2021/01/27 03:44:46;;;;;;;2.87;2.67;;;3.10;99.90;;;;;;4997138;28;20165;-86
2021/01/27 03:47:19;;;;;;;3.20;2.90;;;3.00;99.90;;;;;;5014487;28;20165;-87
2021/01/27 03:50:07;;;;;;;4.20;2.67;;;3.10;99.90;;;;;;4996763;28;20227;-87
2021/01/27 03:52:43;;;;;;;3.03;2.83;;;3.10;99.90;;;;;;4988087;28;20216;-88
2021/01/27 03:55:24;;;;;;;4.67;3.30;;;3.10;99.90;;;;;;4996696;28;20643;-88
2021/01/27 03:58:26;;;;;;;4.07;3.07;;;3.00;99.90;;;;;;4997260;28;20173;-87
2021/01/27 04:01:04;;;;;;;7.10;3.20;;;3.00;99.90;;;;;;4984007;28;20199;-85
2021/01/27 04:03:30;;;;;;;3.07;2.87;;;3.10;99.90;;;;;;5014292;28;20169;-87
2021/01/27 04:05:56;;;;;;;5.90;3.23;;;3.10;99.90;;;;;;4996920;28;20173;-86
2021/01/27 04:08:21;;;;;;;3.37;2.70;;;3.20;99.90;;;;;;5014230;28;20179;-87
2021/01/27 04:10:47;;;;;;;3.57;3.27;;;3.20;99.90;;;;;;4980229;28;20232;-87
2021/01/27 04:13:12;;;;;;;6.23;3.00;;;3.20;99.90;;;;;;5014495;28;20175;-87
2021/01/27 04:15:38;;;;;;;3.83;3.23;;;3.20;99.90;;;;;;4997160;28;20580;-87
2021/01/27 04:18:04;;;;;;;5.70;3.20;;;3.20;99.90;;;;;;5005900;28;20177;-87
2021/01/27 04:20:30;;;;;;;4.20;3.33;;;3.10;99.90;;;;;;5015491;28;20557;-87
2021/01/27 04:22:56;;;;;;;5.40;3.37;;;3.20;99.90;;;;;;5014428;28;20169;-88
2021/01/27 04:25:22;;;;;;;5.40;3.33;;;3.20;99.90;;;;;;5002373;28;20173;-88
2021/01/27 04:27:48;;;;;;;6.37;3.47;;;3.20;99.90;;;;;;4996622;28;20200;-87
2021/01/27 04:30:17;;;;;;;3.30;3.00;;;3.30;99.90;;;;;;4980434;28;20220;-87
2021/01/27 04:32:43;;;;;;;8.73;3.47;;;3.30;99.90;;;;;;4996760;28;20169;-88
2021/01/27 04:35:09;;;;;;;5.70;3.73;;;3.20;99.90;;;;;;4981935;28;20231;-89
2021/01/27 04:37:36;;;;;;;5.20;3.50;;;3.20;99.90;;;;;;5013167;28;20199;-87
2021/01/27 04:40:04;;;;;;;5.37;3.13;;;3.30;99.90;;;;;;5013029;28;20188;-88
2021/01/27 04:42:30;;;;;;;4.10;3.73;;;3.20;99.90;;;;;;5016890;28;20181;-87
2021/01/27 04:44:57;;;;;;;5.90;3.87;;;3.10;99.90;;;;;;4998131;28;20169;-88
2021/01/27 04:47:40;;;;;;;3.93;3.63;;;3.20;99.90;;;;;;5000204;28;20177;-85
2021/01/27 04:50:12;;;;;;;4.90;4.07;;;3.20;99.90;;;;;;5000235;28;20211;-89
2021/01/27 04:52:56;;;;;;;4.23;3.33;;;3.20;99.90;;;;;;5000119;28;20173;-88
2021/01/27 04:55:43;;;;;;;7.00;3.90;;;3.30;99.90;;;;;;5000314;28;20185;-89
2021/01/27 04:58:34;;;;;;;5.53;3.90;;;3.30;99.90;;;;;;4999840;28;20177;-88
2021/01/27 05:01:25;;;;;;;13.87;4.00;;;3.20;99.90;;;;;;5017595;28;20172;-89
2021/01/27 05:03:56;;;;;;;9.40;4.60;;;3.20;99.90;;;;;;5010274;28;20181;-88
2021/01/27 05:06:25;;;;;;;5.07;4.10;;;3.10;99.90;;;;;;5014725;28;20169;-89
2021/01/27 05:08:51;;;;;;;5.40;3.93;;;3.30;99.90;;;;;;5014577;28;20202;-88
2021/01/27 05:11:19;;;;;;;4.33;3.93;;;3.30;99.90;;;;;;5012080;28;20192;-89
2021/01/27 05:13:50;;;;;;;4.93;4.40;;;3.20;99.90;;;;;;5011589;28;20204;-90
2021/01/27 05:16:21;;;;;;;4.67;4.17;;;3.30;99.90;;;;;;5000478;28;20169;-87
2021/01/27 05:18:50;;;;;;;6.53;4.27;;;3.40;99.90;;;;;;4994867;28;20297;-89
2021/01/27 05:21:37;;;;;;;7.50;4.07;;;3.50;99.90;;;;;;4981012;28;20201;-89
2021/01/27 05:24:05;;;;;;;5.50;4.20;;;3.50;99.90;;;;;;4998075;28;20161;-89
2021/01/27 05:26:51;;;;;;;4.13;3.70;;;3.50;99.90;;;;;;4980357;28;20201;-90
2021/01/27 05:29:31;;;;;;;4.70;4.23;;;3.60;99.90;;;;;;4980910;28;20208;-89
2021/01/27 05:32:13;;;;;;;4.67;4.27;;;3.50;99.90;;;;;;4980607;28;20265;-90
2021/01/27 05:34:42;;;;;;;4.97;4.57;;;3.50;99.90;;;;;;4980047;28;20177;-90
2021/01/27 05:37:26;;;;;;;4.70;4.30;;;3.40;99.90;;;;;;4997426;28;20229;-89
2021/01/27 05:40:24;;;;;;;5.83;4.63;;;3.40;99.90;;;;;;4993573;28;20187;-89
2021/01/27 05:42:50;;;;;;;5.77;4.43;;;3.40;99.90;;;;;;4999161;28;20196;-89
2021/01/27 05:45:30;;;;;;;5.00;4.53;;;3.40;99.90;;;;;;4999490;28;20173;-89
2021/01/27 05:48:13;;;;;;;5.53;5.03;;;3.40;99.90;;;;;;5001918;28;20168;-89
2021/01/27 05:50:40;;;;;;;7.43;4.73;;;3.40;99.90;;;;;;5000135;28;20209;-89
2021/01/27 05:53:28;;;;;;;5.93;4.37;;;3.40;99.90;;;;;;4999698;28;20187;-90
2021/01/27 05:56:15;;;;;;;6.67;4.70;;;3.40;99.90;;;;;;4999523;28;20283;-88
2021/01/27 05:58:56;;;;;;;6.70;4.80;;;3.40;99.90;;;;;;4999885;28;20219;-89
2021/01/27 06:01:38;;;;;;;5.73;4.40;;;3.40;99.90;;;;;;5000122;28;20182;-89
2021/01/27 06:04:20;;;;;;;6.97;4.83;;;3.50;99.90;;;;;;4999584;28;20196;-87
2021/01/27 06:06:46;;;;;;;4.63;4.23;;;3.50;99.90;;;;;;4999991;28;20640;-89
2021/01/27 06:09:13;;;;;;;5.43;4.10;;;3.50;99.90;;;;;;5016188;28;20197;-89
2021/01/27 06:11:39;;;;;;;8.37;4.40;;;3.50;99.90;;;;;;4998990;28;20173;-89
2021/01/27 06:14:11;;;;;;;5.10;4.43;;;3.60;99.90;;;;;;4998746;28;20169;-90
2021/01/27 06:16:45;;;;;;;6.67;4.70;;;3.60;99.90;;;;;;5016873;28;20157;-89
2021/01/27 06:19:12;;;;;;;5.13;3.90;;;3.60;99.90;;;;;;4979488;28;20268;-89
2021/01/27 06:22:00;;;;;;;4.30;4.00;;;3.60;99.90;;;;;;4979541;28;20169;-89
2021/01/27 06:25:02;;;;;;;5.63;4.27;;;3.60;99.90;;;;;;4972496;28;20272;-89
2021/01/27 06:27:52;;;;;;;8.23;4.47;;;3.70;99.90;;;;;;4996904;28;20157;-89
2021/01/27 06:30:41;;;;;;;4.73;4.23;;;3.60;99.90;;;;;;4979115;28;20220;-89
2021/01/27 06:33:23;;;;;;;5.23;4.70;;;3.70;99.90;;;;;;4996061;28;20157;-89
2021/01/27 06:36:10;;;;;;;5.20;4.80;;;3.70;99.90;;;;;;4979168;28;20170;-89
2021/01/27 06:39:06;;;;;;;5.73;4.27;;;3.70;99.90;;;;;;4980408;28;20174;-89
2021/01/27 06:41:34;;;;;;;5.07;4.33;;;3.70;99.90;;;;;;4995756;28;20181;-88
2021/01/27 06:44:03;;;;;;;5.13;4.73;;;3.60;99.90;;;;;;4978457;28;20184;-89
2021/01/27 06:46:44;;;;;;;5.33;4.90;;;3.70;99.90;;;;;;4996797;28;20252;-89
2021/01/27 06:49:31;;;;;;;4.87;4.47;;;3.70;99.90;;;;;;4999244;28;20205;-88
2021/01/27 06:52:11;;;;;;;5.60;4.97;;;3.70;99.90;;;;;;5014675;28;20177;-89
2021/01/27 06:55:27;;;;;;;5.90;5.30;;;3.70;99.90;;;;;;5009362;28;20176;-89
2021/01/27 06:58:11;;;;;;;5.17;4.77;;;3.80;99.90;;;;;;4968060;28;20552;-88
2021/01/27 07:00:56;;;;;;;7.40;5.33;;;3.80;99.90;;;;;;4997860;28;20319;-88
2021/01/27 07:03:50;;;;;;;6.17;5.53;;;3.80;99.90;;;;;;4998312;28;20271;-88
2021/01/27 07:06:36;;;;;;;5.73;5.13;;;3.70;99.90;;;;;;5011147;28;20207;-89
2021/01/27 07:09:20;;;;;;;8.50;5.80;;;3.60;99.90;;;;;;5028936;28;20201;-89
2021/01/27 07:12:14;;;;;;;7.03;6.43;;;3.60;99.90;;;;;;4996288;28;20230;-89
2021/01/27 07:14:58;;;;;;;5.33;4.93;;;3.70;99.90;;;;;;4999291;28;20177;-89
2021/01/27 07:17:34;;;;;;;9.97;5.80;;;3.70;99.90;;;;;;4997775;28;20172;-89
2021/01/27 07:20:11;;;;;;;6.13;5.57;;;3.70;99.90;;;;;;4997698;28;20180;-89
2021/01/27 07:22:53;;;;;;;6.70;6.20;;;3.70;99.90;;;;;;4978213;28;20228;-89
2021/01/27 07:25:41;;;;;;;5.77;5.37;;;3.70;99.90;;;;;;4977768;28;20181;-89
2021/01/27 07:28:25;;;;;;;8.00;6.10;;;3.70;99.90;;;;;;4978363;28;20169;-91
2021/01/27 07:31:01;;;;;;;8.53;6.60;;;3.70;99.90;;;;;;4982871;28;20238;-89
2021/01/27 07:34:04;;;;;;;7.27;5.87;;;3.70;99.90;;;;;;4978105;28;20179;-90
2021/01/27 07:36:53;;;;;;;7.77;6.97;;;3.70;99.90;;;;;;4980608;28;20614;-89
2021/01/27 07:39:44;;;;;;;6.57;6.07;;;3.70;99.90;;;;;;5001204;28;20168;-89
2021/01/27 07:42:23;;;;;;;8.90;6.23;;;3.80;99.90;;;;;;4996789;28;20621;-89
2021/01/27 07:44:54;;;;;;;6.83;6.27;;;3.80;99.90;;;;;;4997195;28;20697;-88
2021/01/27 07:48:03;;;;;;;6.73;6.23;;;3.80;99.90;;;;;;4997384;28;20184;-89
2021/01/27 07:50:30;;;;;;;9.57;7.10;;;3.90;99.90;;;;;;4958371;28;20235;-90
2021/01/27 07:53:06;;;;;;;11.57;6.07;;;3.90;99.90;;;;;;4989330;28;20176;-90
2021/01/27 07:56:17;;;;;;;7.73;6.83;;;4.00;99.90;;;;;;5016943;28;20177;-90
2021/01/27 07:59:03;;;;;;;9.77;6.00;;;4.00;99.90;;;;;;4990969;28;20184;-90
2021/01/27 08:01:37;;;;;;;8.60;6.00;;;4.00;99.90;;;;;;4999420;28;20177;-90
2021/01/27 08:04:40;;;;;;;7.27;6.60;;;4.10;99.90;;;;;;4998110;28;20173;-90
2021/01/27 08:07:14;;;;;;;7.10;6.23;;;4.10;99.90;;;;;;4997003;28;20220;-89
2021/01/27 08:09:42;;;;;;;6.80;6.23;;;4.10;99.90;;;;;;4998507;28;20681;-90
2021/01/27 08:12:15;;;;;;;7.23;6.20;;;4.20;99.90;;;;;;4981593;28;20184;-90
2021/01/27 08:15:10;;;;;;;9.07;7.53;;;4.10;99.90;;;;;;5014749;28;20173;-89
2021/01/27 08:17:43;;;;;;;8.20;6.57;;;4.20;99.90;;;;;;4990713;28;20169;-90
2021/01/27 08:20:37;;;;;;;10.50;7.27;;;4.30;99.90;;;;;;4993080;28;20275;-89
2021/01/27 08:23:02;;;;;;;9.43;8.50;;;4.30;99.90;;;;;;5000526;28;20411;-90
2021/01/27 08:25:47;;;;;;;10.07;9.27;;;4.40;99.90;;;;;;4999866;28;20450;-90
2021/01/27 08:28:23;;;;;;;9.77;8.97;;;4.50;99.90;;;;;;4999283;28;20477;-90
2021/01/27 08:31:07;;;;;;;6.93;6.43;;;4.60;99.90;;;;;;5000384;28;20220;-89
2021/01/27 08:33:52;;;;;;;7.87;7.17;;;4.60;99.90;;;;;;5000451;28;20212;-90
2021/01/27 08:36:29;;;;;;;7.53;6.83;;;4.50;99.90;;;;;;5017738;28;20168;-90
2021/01/27 08:38:57;;;;;;;6.30;5.77;;;4.50;99.90;;;;;;5000140;28;20634;-89
2021/01/27 08:41:59;;;;;;;8.67;7.30;;;4.50;99.90;;;;;;5000707;28;20185;-89
2021/01/27 08:44:30;;;;;;;6.73;6.23;;;4.60;99.90;;;;;;5000429;28;20269;-90
2021/01/27 08:47:23;;;;;;;6.87;6.20;;;4.60;99.90;;;;;;4999062;28;20227;-91
2021/01/27 08:49:58;;;;;;;7.50;6.83;;;4.50;99.90;;;;;;4980891;28;20666;-90
2021/01/27 08:52:24;;;;;;;7.77;6.90;;;4.50;99.90;;;;;;4981082;28;20179;-90
2021/01/27 08:54:51;;;;;;;7.40;6.70;;;4.50;99.90;;;;;;4980679;28;20177;-90
2021/01/27 08:57:30;;;;;;;7.60;7.03;;;4.60;99.90;;;;;;4948578;28;20682;-90
2021/01/27 09:00:03;;;;;;;7.43;6.83;;;4.60;99.90;;;;;;4931763;29;20283;-90
2021/01/27 09:02:50;;;;;;;8.10;7.30;;;4.60;99.90;;;;;;4957100;29;20577;-90
2021/01/27 09:05:34;;;;;;;7.87;7.07;;;4.60;99.90;;;;;;4941195;29;20694;-90
2021/01/27 09:08:10;;;;;;;8.47;7.50;;;4.60;99.90;;;;;;4957485;29;20675;-90
2021/01/27 09:10:47;;;;;;;8.33;7.50;;;4.60;99.90;;;;;;4940705;29;20689;-90
2021/01/27 09:13:35;;;;;;;8.80;8.00;;;4.70;99.90;;;;;;4957096;29;20166;-90
2021/01/27 09:16:01;;;;;;;8.83;8.03;;;4.80;99.90;;;;;;4962500;28;20178;-90
2021/01/27 09:18:27;;;;;;;8.53;7.83;;;4.80;99.90;;;;;;4960225;29;20252;-90
2021/01/27 09:20:53;;;;;;;9.03;8.13;;;4.80;99.90;;;;;;4973885;29;20299;-90
2021/01/27 09:23:21;;;;;;;10.27;7.93;;;4.80;99.90;;;;;;4948368;29;20266;-90
2021/01/27 09:25:50;;;;;;;9.10;8.20;;;4.90;99.90;;;;;;4940895;29;20763;-89
2021/01/27 09:28:23;;;;;;;9.37;8.33;;;5.00;99.90;;;;;;4956934;29;20210;-90
2021/01/27 09:30:49;;;;;;;9.33;8.43;;;5.00;99.90;;;;;;4976985;28;20228;-89
2021/01/27 09:33:35;;;;;;;13.17;8.90;;;5.10;99.90;;;;;;4991129;28;20240;-89
2021/01/27 09:36:06;;;;;;;12.30;9.27;;;5.10;99.90;;;;;;5001697;28;20176;-90
2021/01/27 09:38:34;;;;;;;10.37;9.07;;;5.20;99.90;;;;;;5033763;28;20172;-89
2021/01/27 09:41:04;;;;;;;14.60;9.70;;;5.20;99.90;;;;;;5001331;28;20192;-89
2021/01/27 09:43:36;;;;;;;13.93;9.80;;;5.20;99.90;;;;;;4999224;28;20169;-89
2021/01/27 09:46:31;;;;;;;14.70;9.60;;;5.20;99.90;;;;;;5016648;28;20203;-90
2021/01/27 09:49:06;;;;;;;10.63;9.57;;;5.20;99.90;;;;;;5002619;28;20168;-90
2021/01/27 09:56:33;;;;;;;11.70;10.47;;;5.10;99.90;;;;;;5353028;23;20228;-90
2021/01/27 09:59:00;;;;;;;14.60;10.70;;;5.10;99.90;;;;;;5015430;28;20177;-89
2021/01/27 10:01:30;;;;;;;15.80;11.50;;;5.20;99.90;;;;;;4974376;28;20193;-90
2021/01/27 10:04:11;;;;;;;12.90;11.10;;;5.20;99.90;;;;;;4983487;28;20174;-91
2021/01/27 10:06:54;;;;;;;16.40;11.43;;;5.20;99.90;;;;;;4976189;28;20186;-89
2021/01/27 10:09:25;;;;;;;13.70;11.50;;;5.20;99.90;;;;;;4977269;28;20197;-89
2021/01/27 10:12:05;;;;;;;17.83;11.70;;;5.20;99.90;;;;;;4960974;28;20265;-89
2021/01/27 10:14:34;;;;;;;15.70;11.83;;;5.20;99.90;;;;;;4977962;28;20171;-90
2021/01/27 10:17:05;;;;;;;13.77;11.53;;;5.20;99.90;;;;;;4976687;28;20176;-90
2021/01/27 10:19:34;;;;;;;15.43;11.37;;;5.30;99.90;;;;;;4963049;28;20629;-89
2021/01/27 10:22:02;;;;;;;13.30;10.97;;;5.30;99.90;;;;;;4968524;28;20197;-90
2021/01/27 10:24:49;;;;;;;14.03;11.40;;;5.40;99.90;;;;;;4979155;28;20204;-89
2021/01/27 10:27:17;;;;;;;14.80;11.60;;;5.40;99.90;;;;;;4996752;28;20184;-90
2021/01/27 10:29:43;;;;;;;19.47;12.47;;;5.40;99.90;;;;;;4982739;28;20201;-90
2021/01/27 10:32:17;;;;;;;18.17;11.90;;;5.50;99.90;;;;;;4973184;28;20221;-89
2021/01/27 10:34:45;;;;;;;18.83;12.30;;;5.40;99.90;;;;;;4960003;28;20225;-90
2021/01/27 10:37:37;;;;;;;16.70;12.47;;;5.40;99.90;;;;;;4968606;28;20181;-88
2021/01/27 10:40:17;;;;;;;14.03;12.50;;;5.40;99.90;;;;;;4997155;28;20652;-89
2021/01/27 10:43:03;;;;;;;18.83;13.20;;;5.50;99.90;;;;;;4978155;28;20176;-90
2021/01/27 10:45:37;;;;;;;19.93;12.40;;;5.50;99.90;;;;;;4979334;28;20194;-90
2021/01/27 10:48:12;;;;;;;22.03;12.63;;;5.50;99.90;;;;;;4996121;28;20172;-89
2021/01/27 10:50:44;;;;;;;18.43;12.30;;;5.60;99.90;;;;;;4978450;28;20200;-90
2021/01/27 10:53:13;;;;;;;15.40;12.43;;;5.70;99.90;;;;;;4978853;28;20609;-90
2021/01/27 10:55:41;;;;;;;17.10;12.40;;;5.70;99.90;;;;;;4978666;28;20192;-90
2021/01/27 10:58:16;;;;;;;16.93;13.27;;;5.80;99.90;;;;;;4978395;28;20712;-90
2021/01/27 11:00:42;;;;;;;22.47;13.07;;;5.90;99.90;;;;;;4979303;28;20165;-90
2021/01/27 11:03:09;;;;;;;18.93;12.77;;;5.90;99.90;;;;;;4962936;28;20174;-89
2021/01/27 11:05:36;;;;;;;21.43;12.77;;;5.90;99.90;;;;;;4978617;28;20630;-90
2021/01/27 11:08:04;;;;;;;20.93;12.77;;;6.00;99.90;;;;;;4963008;28;20201;-90
2021/01/27 11:10:31;;;;;;;18.20;12.87;;;6.00;99.90;;;;;;4967033;28;20213;-89
2021/01/27 11:12:58;;;;;;;18.43;13.10;;;6.00;99.90;;;;;;4979443;28;20245;-89
2021/01/27 11:15:24;;;;;;;19.40;12.60;;;6.10;99.90;;;;;;4986419;28;20178;-89
2021/01/27 11:17:50;;;;;;;18.60;12.37;;;6.10;99.90;;;;;;4979518;28;20275;-90
2021/01/27 11:20:22;;;;;;;22.80;13.23;;;6.10;99.90;;;;;;4978913;28;20197;-88
2021/01/27 11:22:53;;;;;;;19.57;12.73;;;6.20;99.90;;;;;;4983831;28;20171;-89
2021/01/27 11:25:24;;;;;;;19.77;13.13;;;6.10;99.90;;;;;;4968099;28;20223;-89
2021/01/27 11:27:50;;;;;;;22.97;12.57;;;6.10;99.90;;;;;;4978432;28;20180;-89
2021/01/27 11:30:19;;;;;;;17.30;12.43;;;6.10;99.90;;;;;;4978880;28;20201;-89
2021/01/27 11:32:45;;;;;;;16.63;12.33;;;6.10;99.90;;;;;;4968017;28;20742;-89
2021/01/27 11:35:11;;;;;;;17.37;12.67;;;6.20;99.90;;;;;;4963449;28;20202;-88
2021/01/27 11:37:38;;;;;;;16.97;12.97;;;6.20;99.90;;;;;;4979706;28;20220;-89
2021/01/27 11:40:07;;;;;;;18.90;13.50;;;6.10;99.90;;;;;;4972902;28;20201;-90
2021/01/27 11:42:33;;;;;;;18.43;13.13;;;6.10;99.90;;;;;;4979145;28;20184;-89
2021/01/27 11:45:02;;;;;;;17.90;12.97;;;6.10;99.90;;;;;;4979095;28;20165;-89
2021/01/27 11:47:28;;;;;;;23.07;12.83;;;6.00;99.90;;;;;;4986537;28;20173;-90
2021/01/27 11:49:54;;;;;;;17.40;13.33;;;6.00;99.90;;;;;;4960022;28;20198;-90
2021/01/27 11:52:20;;;;;;;17.23;12.13;;;5.90;99.90;;;;;;4959878;28;20273;-89
2021/01/27 11:54:45;;;;;;;19.00;12.53;;;5.90;99.90;;;;;;4961248;28;20629;-90
2021/01/27 11:57:11;;;;;;;19.13;13.87;;;5.80;99.90;;;;;;4963565;28;20196;-90
2021/01/27 11:59:38;;;;;;;18.50;14.03;;;5.80;99.90;;;;;;4962560;28;20189;-91
2021/01/27 12:02:05;;;;;;;19.37;13.70;;;5.80;99.90;;;;;;4979391;28;20256;-90
2021/01/27 12:04:33;;;;;;;21.43;13.60;;;5.90;99.90;;;;;;4982848;28;20173;-90
2021/01/27 12:06:59;;;;;;;22.20;14.37;;;6.00;99.90;;;;;;4982867;28;20701;-90
2021/01/27 12:09:31;;;;;;;26.60;15.10;;;6.20;99.90;;;;;;4984377;28;20211;-89
2021/01/27 12:11:57;;;;;;;27.43;15.63;;;6.20;99.90;;;;;;4989363;28;20205;-91
2021/01/27 12:14:24;;;;;;;24.07;15.70;;;6.30;99.90;;;;;;4989419;28;20170;-91
2021/01/27 12:16:50;;;;;;;23.77;14.43;;;6.40;99.90;;;;;;4986235;28;20178;-91
2021/01/27 12:19:16;;;;;;;29.17;16.10;;;6.40;99.90;;;;;;4993874;28;20622;-90
2021/01/27 12:21:42;;;;;;;25.17;16.23;;;6.40;99.90;;;;;;4967179;28;20184;-91
2021/01/27 12:24:09;;;;;;;25.70;16.20;;;6.40;99.90;;;;;;4990385;28;20169;-91
2021/01/27 12:26:35;;;;;;;28.13;15.97;;;6.60;99.90;;;;;;5000559;28;20190;-90
2021/01/27 12:29:00;;;;;;;31.47;17.33;;;6.60;99.90;;;;;;4998903;28;20248;-90
2021/01/27 12:31:26;;;;;;;31.77;17.37;;;6.70;99.90;;;;;;4957170;28;20588;-91
2021/01/27 12:33:52;;;;;;;30.67;17.07;;;6.70;99.90;;;;;;4974053;28;20643;-90
2021/01/27 12:36:18;;;;;;;32.20;18.30;;;6.60;99.90;;;;;;4948843;28;20174;-90
2021/01/27 12:38:43;;;;;;;45.40;20.07;;;6.60;99.90;;;;;;4962483;28;20174;-90
2021/01/27 12:41:09;;;;;;;37.60;18.47;;;6.60;99.90;;;;;;4948194;28;20273;-90
2021/01/27 12:43:35;;;;;;;42.40;20.20;;;6.60;99.90;;;;;;4966520;28;20158;-91
2021/01/27 12:46:02;;;;;;;48.87;21.10;;;6.60;99.90;;;;;;4981991;28;20264;-90
2021/01/27 12:48:31;;;;;;;35.57;20.13;;;6.60;99.90;;;;;;4983729;28;20181;-91
2021/01/27 12:50:58;;;;;;;40.10;20.63;;;6.70;99.90;;;;;;4980657;28;20197;-90
2021/01/27 12:53:27;;;;;;;42.30;20.33;;;6.70;99.90;;;;;;4980595;28;20178;-91
2021/01/27 12:55:53;;;;;;;47.23;21.03;;;6.80;99.90;;;;;;4980429;28;20185;-90
2021/01/27 12:58:19;;;;;;;39.30;20.53;;;6.90;99.90;;;;;;4997885;28;20166;-91
2021/01/27 13:00:45;;;;;;;40.17;20.50;;;7.00;99.90;;;;;;4963884;28;20177;-91
2021/01/27 13:03:11;;;;;;;46.57;20.33;;;7.00;99.90;;;;;;4981517;28;20181;-91
2021/01/27 13:05:37;;;;;;;47.20;22.07;;;7.10;99.90;;;;;;4975805;28;20263;-91
2021/01/27 13:08:04;;;;;;;49.97;22.17;;;7.20;99.90;;;;;;4975948;28;20221;-90
2021/01/27 13:10:30;;;;;;;44.67;21.27;;;7.20;99.90;;;;;;4981533;28;20252;-89
2021/01/27 13:12:56;;;;;;;49.20;22.03;;;7.20;99.90;;;;;;4971696;28;20208;-90
2021/01/27 13:15:22;;;;;;;45.90;21.23;;;7.20;99.90;;;;;;4978703;28;20233;-90
2021/01/27 13:17:49;;;;;;;44.77;21.83;;;7.10;99.90;;;;;;4959745;28;20181;-90
2021/01/27 13:20:20;;;;;;;46.83;21.43;;;7.10;99.90;;;;;;4993201;28;20209;-91
2021/01/27 13:22:46;;;;;;;41.63;21.70;;;7.20;99.90;;;;;;4995257;28;20154;-91
2021/01/27 13:25:19;;;;;;;71.03;24.30;;;7.30;99.90;;;;;;4976499;28;20179;-90
2021/01/27 13:27:48;;;;;;;41.50;20.70;;;7.40;99.90;;;;;;4979916;28;20182;-90
2021/01/27 13:30:16;;;;;;;47.00;21.97;;;7.50;99.90;;;;;;4996485;28;20225;-90